Time;durP1;ratioP1;P1;durP2;ratioP2;P2;SDS_P1;SDS_P2;PMS_P1;PMS_P2;Temp;Humidity;BMP_temperature;BMP_pressure;BME280_temperature;BME280_humidity;BME280_pressure;Samples;Min_cycle;Max_cycle;Signal;HPM_P1;HPM_P2
2021/12/19 00:04:36;;;;;;;23.73;12.40;;;8.60;65.00;;;;;;4862857;29;20094;-79
2021/12/19 00:09:47;;;;;;;22.08;12.20;;;8.90;63.80;;;;;;4862783;29;20492;-79
2021/12/19 00:12:13;;;;;;;20.40;12.07;;;8.90;64.10;;;;;;4862480;29;20029;-80
2021/12/19 00:14:38;;;;;;;23.67;12.93;;;8.70;64.50;;;;;;4860962;29;20041;-78
2021/12/19 00:17:04;;;;;;;18.77;11.90;;;9.00;63.90;;;;;;4861943;29;20505;-79
2021/12/19 00:19:30;;;;;;;21.85;11.70;;;9.30;63.40;;;;;;4861572;29;20481;-79
2021/12/19 00:21:56;;;;;;;23.63;13.80;;;9.10;63.70;;;;;;4860603;29;20033;-79
2021/12/19 00:24:24;;;;;;;20.77;12.23;;;9.20;63.60;;;;;;4861133;29;20128;-79
2021/12/19 00:26:50;;;;;;;22.85;12.50;;;9.30;63.20;;;;;;4860922;29;20030;-79
2021/12/19 00:29:15;;;;;;;24.52;13.25;;;9.20;63.70;;;;;;4860886;29;20584;-79
2021/12/19 00:31:45;;;;;;;23.55;13.10;;;9.30;63.80;;;;;;4860750;29;20037;-78
2021/12/19 00:34:11;;;;;;;25.98;14.20;;;8.90;64.60;;;;;;4860959;29;20061;-79
2021/12/19 00:36:37;;;;;;;24.55;13.48;;;8.70;65.20;;;;;;4861261;29;20085;-79
2021/12/19 00:39:04;;;;;;;24.80;13.75;;;8.70;65.50;;;;;;4861256;29;20061;-79
2021/12/19 00:41:30;;;;;;;27.00;14.30;;;8.40;66.20;;;;;;4860662;29;20033;-79
2021/12/19 00:44:07;;;;;;;25.77;15.10;;;8.50;66.80;;;;;;4860809;29;20068;-79
2021/12/19 00:46:42;;;;;;;23.92;14.20;;;8.80;65.80;;;;;;4860481;29;20457;-78
2021/12/19 00:49:08;;;;;;;26.15;14.18;;;8.90;65.30;;;;;;4860754;29;20033;-84
2021/12/19 00:51:34;;;;;;;24.08;14.18;;;9.00;65.10;;;;;;4861101;29;20033;-81
2021/12/19 00:54:00;;;;;;;26.40;14.68;;;8.90;65.50;;;;;;4859648;29;20041;-89
2021/12/19 00:56:25;;;;;;;28.58;14.95;;;9.00;65.20;;;;;;4861033;29;20365;-89
2021/12/19 00:58:51;;;;;;;24.70;14.63;;;9.30;65.30;;;;;;4860613;29;20024;-80
2021/12/19 01:01:17;;;;;;;25.02;14.00;;;9.60;64.20;;;;;;4859350;29;20438;-79
2021/12/19 01:03:46;;;;;;;26.35;14.32;;;9.70;63.70;;;;;;4861697;29;20036;-78
2021/12/19 01:06:12;;;;;;;30.70;15.73;;;9.30;64.50;;;;;;4861446;29;20033;-79
2021/12/19 01:08:37;;;;;;;28.48;15.57;;;9.00;65.70;;;;;;4860862;29;20417;-79
2021/12/19 01:11:04;;;;;;;25.33;13.55;;;9.10;65.80;;;;;;4861420;29;20025;-79
2021/12/19 01:13:29;;;;;;;27.48;15.10;;;9.00;66.10;;;;;;4859760;29;20068;-79
2021/12/19 01:15:57;;;;;;;25.10;14.25;;;9.60;64.80;;;;;;4860351;29;20298;-80
2021/12/19 01:18:23;;;;;;;24.23;14.38;;;9.30;64.90;;;;;;4859888;29;20040;-79
2021/12/19 01:20:49;;;;;;;27.02;14.70;;;9.20;65.10;;;;;;4859864;29;20034;-78
2021/12/19 01:23:15;;;;;;;29.30;14.88;;;9.20;65.60;;;;;;4859542;29;20033;-79
2021/12/19 01:25:42;;;;;;;25.83;14.73;;;9.40;65.00;;;;;;4859618;29;20037;-80
2021/12/19 01:28:08;;;;;;;26.13;15.07;;;9.50;64.70;;;;;;4860039;29;20120;-79
2021/12/19 01:30:34;;;;;;;26.08;14.70;;;9.40;65.00;;;;;;4859891;29;20033;-79
2021/12/19 01:33:00;;;;;;;26.55;15.13;;;9.20;65.80;;;;;;4861048;29;20106;-79
2021/12/19 01:35:26;;;;;;;25.73;15.05;;;9.30;65.70;;;;;;4859730;29;20078;-79
2021/12/19 01:37:53;;;;;;;28.50;15.70;;;9.10;66.00;;;;;;4860012;29;20110;-79
2021/12/19 01:40:26;;;;;;;29.17;15.98;;;9.10;66.50;;;;;;4861098;29;20755;-80
2021/12/19 01:42:55;;;;;;;26.67;16.08;;;9.00;66.60;;;;;;4860224;29;20037;-80
2021/12/19 01:45:28;;;;;;;27.70;15.27;;;9.00;66.80;;;;;;4861110;29;20512;-79
2021/12/19 01:47:56;;;;;;;29.35;15.90;;;9.10;66.70;;;;;;4860068;29;20033;-81
2021/12/19 01:50:22;;;;;;;29.00;16.00;;;9.20;66.60;;;;;;4859798;29;20514;-80
2021/12/19 01:52:49;;;;;;;29.92;15.52;;;9.10;66.90;;;;;;4860970;29;20442;-82
2021/12/19 01:55:17;;;;;;;32.17;17.00;;;9.30;66.90;;;;;;4859206;29;20042;-84
2021/12/19 01:57:43;;;;;;;31.75;16.83;;;9.10;67.10;;;;;;4841049;29;20061;-79
2021/12/19 02:00:26;;;;;;;30.83;16.65;;;9.00;67.30;;;;;;4859601;29;20381;-80
2021/12/19 02:02:53;;;;;;;28.10;15.80;;;9.30;67.00;;;;;;4859684;29;20065;-79
2021/12/19 02:05:19;;;;;;;26.88;15.80;;;9.40;67.00;;;;;;4859235;29;20033;-78
2021/12/19 02:08:09;;;;;;;27.23;16.67;;;9.30;66.30;;;;;;5082096;27;1434400;-80
2021/12/19 02:10:45;;;;;;;28.38;16.17;;;9.50;67.00;;;;;;5092632;28;20084;-81
2021/12/19 02:13:13;;;;;;;29.02;16.15;;;9.30;66.60;;;;;;5092923;28;20073;-81
2021/12/19 02:15:42;;;;;;;28.25;15.68;;;9.50;66.90;;;;;;5110363;28;20127;-79
2021/12/19 02:18:17;;;;;;;30.65;17.30;;;9.40;66.70;;;;;;5092114;28;20027;-79
2021/12/19 02:20:50;;;;;;;29.63;17.13;;;9.40;66.90;;;;;;5092671;28;20048;-79
2021/12/19 02:23:18;;;;;;;26.55;15.50;;;9.50;66.50;;;;;;5110547;28;20057;-81
2021/12/19 02:25:44;;;;;;;31.30;16.42;;;9.20;67.70;;;;;;5075776;28;20030;-79
2021/12/19 02:28:10;;;;;;;28.55;16.42;;;9.10;68.10;;;;;;5110440;28;20046;-79
2021/12/19 02:30:36;;;;;;;27.67;15.98;;;9.50;67.30;;;;;;5092058;28;20474;-79
2021/12/19 02:33:05;;;;;;;26.88;15.27;;;9.40;67.40;;;;;;5092787;28;20031;-79
2021/12/19 02:35:35;;;;;;;24.88;14.98;;;9.40;67.40;;;;;;5089469;28;20115;-80
2021/12/19 02:48:07;;;;;;;27.95;15.07;;;9.50;67.10;;;;;;5047939;28;20017;-79
2021/12/19 02:48:44;;;;;;;24.98;14.50;;;9.60;66.80;;;;;;5047949;28;20530;-84
2021/12/19 02:51:09;;;;;;;27.40;15.32;;;9.60;66.60;;;;;;5031205;28;20033;-80
2021/12/19 02:53:40;;;;;;;25.05;15.05;;;9.50;67.00;;;;;;5048055;28;20587;-80
2021/12/19 02:56:09;;;;;;;24.90;14.63;;;9.50;67.40;;;;;;5046855;28;20369;-79
2021/12/19 02:58:37;;;;;;;24.65;13.63;;;9.90;66.60;;;;;;5047531;28;20030;-80
2021/12/19 03:01:17;;;;;;;26.42;14.13;;;9.70;66.30;;;;;;5047110;28;20392;-78
2021/12/19 03:03:42;;;;;;;27.70;14.75;;;9.80;66.20;;;;;;5030975;28;20391;-79
2021/12/19 03:06:08;;;;;;;26.63;15.15;;;9.30;67.80;;;;;;5047052;28;20520;-81
2021/12/19 03:08:34;;;;;;;27.52;14.63;;;9.30;67.90;;;;;;5044011;28;20036;-79
2021/12/19 03:18:48;;;;;;;25.40;14.13;;;9.70;67.00;;;;;;5086975;28;20034;-80
2021/12/19 03:21:16;;;;;;;21.67;13.02;;;9.90;66.80;;;;;;5059351;28;20028;-80
2021/12/19 03:23:43;;;;;;;25.77;14.73;;;9.80;66.70;;;;;;5078371;28;20680;-79
2021/12/19 03:26:09;;;;;;;23.35;13.77;;;9.70;67.40;;;;;;5071318;28;20032;-80
2021/12/19 03:28:35;;;;;;;26.35;14.25;;;10.10;66.50;;;;;;5074573;28;20021;-81
2021/12/19 03:31:02;;;;;;;26.30;14.07;;;10.10;65.80;;;;;;5070584;28;20035;-79
2021/12/19 03:33:28;;;;;;;23.98;14.32;;;10.00;66.30;;;;;;5094740;28;20028;-79
2021/12/19 03:35:54;;;;;;;25.20;14.75;;;10.40;65.50;;;;;;5075603;28;20032;-80
2021/12/19 03:38:26;;;;;;;23.60;13.50;;;10.50;64.90;;;;;;5075339;28;20035;-86
2021/12/19 03:41:06;;;;;;;23.98;14.23;;;10.60;64.60;;;;;;5074102;28;20138;-79
2021/12/19 03:43:31;;;;;;;24.50;14.80;;;10.10;65.70;;;;;;5073731;28;20016;-78
2021/12/19 03:45:57;;;;;;;24.90;13.98;;;9.80;66.60;;;;;;5074103;28;20036;-78
2021/12/19 03:48:23;;;;;;;25.05;13.73;;;9.70;67.40;;;;;;5075429;28;20027;-79
2021/12/19 03:50:52;;;;;;;23.00;14.45;;;9.70;67.00;;;;;;5081093;28;20024;-81
2021/12/19 03:53:21;;;;;;;22.90;13.55;;;9.90;66.50;;;;;;5073626;28;20497;-80
2021/12/19 03:55:47;;;;;;;23.83;14.02;;;10.00;66.30;;;;;;5059034;28;20028;-79
2021/12/19 03:58:15;;;;;;;22.17;13.63;;;9.90;66.30;;;;;;5093166;28;20032;-79
2021/12/19 04:00:43;;;;;;;26.58;15.02;;;10.00;66.50;;;;;;5068623;28;20054;-78
2021/12/19 04:03:17;;;;;;;24.05;13.55;;;9.90;66.30;;;;;;5069828;28;20032;-82
2021/12/19 04:05:45;;;;;;;25.75;13.82;;;9.50;67.00;;;;;;5076215;28;20016;-79
2021/12/19 04:08:11;;;;;;;24.38;13.95;;;9.60;67.50;;;;;;5094426;28;20051;-79
2021/12/19 04:10:37;;;;;;;26.25;14.45;;;9.40;67.80;;;;;;5067971;28;20066;-81
2021/12/19 04:13:03;;;;;;;25.40;14.07;;;9.70;67.10;;;;;;5073487;28;20116;-79
2021/12/19 04:15:29;;;;;;;25.80;14.57;;;9.60;66.70;;;;;;5057792;28;20025;-81
2021/12/19 04:17:55;;;;;;;25.95;15.65;;;9.60;67.10;;;;;;5075815;28;20025;-79
2021/12/19 04:20:21;;;;;;;25.70;14.60;;;9.90;66.60;;;;;;5073103;28;20028;-79
2021/12/19 04:22:49;;;;;;;24.98;15.98;;;10.00;66.10;;;;;;5074385;28;20359;-79
2021/12/19 04:25:15;;;;;;;40.85;20.33;;;10.10;66.00;;;;;;5056506;28;20033;-79
2021/12/19 04:27:41;;;;;;;28.05;15.60;;;10.10;65.10;;;;;;5073033;28;20621;-81
2021/12/19 04:30:10;;;;;;;32.78;17.30;;;9.80;66.10;;;;;;5057181;28;20358;-81
2021/12/19 04:32:41;;;;;;;30.40;16.40;;;10.10;65.50;;;;;;5068413;28;20044;-81
2021/12/19 04:35:09;;;;;;;22.95;13.60;;;10.00;65.90;;;;;;5056401;28;20124;-82
2021/12/19 04:43:59;;;;;;;20.35;12.60;;;9.80;66.40;;;;;;5074722;28;20094;-80
2021/12/19 04:59:05;;;;;;;21.00;13.55;;;9.60;67.10;;;;;;5093663;28;20016;-80
2021/12/19 05:04:24;;;;;;;21.52;12.18;;;9.30;67.60;;;;;;5092856;28;20032;-79
2021/12/19 05:15:02;;;;;;;19.58;11.68;;;9.60;66.80;;;;;;5087073;28;20039;-81
2021/12/19 05:17:30;;;;;;;20.67;12.55;;;10.10;65.10;;;;;;5062480;28;20101;-79
2021/12/19 05:22:34;;;;;;;21.27;12.65;;;10.20;65.30;;;;;;5073612;28;20020;-81
2021/12/19 05:27:56;;;;;;;19.83;12.05;;;10.10;64.90;;;;;;5063456;28;20047;-79
2021/12/19 05:30:23;;;;;;;20.15;11.68;;;10.10;65.40;;;;;;5074415;28;20058;-80
2021/12/19 05:32:50;;;;;;;18.70;11.80;;;10.20;64.50;;;;;;5073060;28;20034;-78
2021/12/19 05:35:30;;;;;;;18.45;12.13;;;9.70;65.80;;;;;;5076317;28;20082;-82
2021/12/19 05:46:08;;;;;;;17.10;10.18;;;9.90;65.60;;;;;;5077216;28;20169;-79
2021/12/19 05:48:34;;;;;;;16.13;10.27;;;10.00;65.50;;;;;;5071886;28;20119;-79
2021/12/19 05:51:00;;;;;;;17.73;11.40;;;10.00;65.50;;;;;;5073199;28;20024;-81
2021/12/19 05:53:27;;;;;;;16.30;10.57;;;10.10;65.50;;;;;;5071859;28;20029;-79
2021/12/19 05:55:52;;;;;;;16.73;10.90;;;10.00;65.10;;;;;;5055344;28;20029;-82
2021/12/19 05:58:18;;;;;;;15.52;9.63;;;10.10;65.00;;;;;;5071371;28;20025;-79
2021/12/19 06:00:44;;;;;;;14.52;9.82;;;10.10;65.50;;;;;;5070919;28;20025;-80
2021/12/19 06:03:10;;;;;;;15.18;10.35;;;9.80;65.90;;;;;;5070169;28;20395;-79
2021/12/19 06:05:36;;;;;;;16.40;10.55;;;10.10;65.30;;;;;;5053461;28;20394;-79
2021/12/19 06:08:02;;;;;;;16.48;10.88;;;10.30;64.90;;;;;;5070159;28;20486;-79
2021/12/19 06:10:28;;;;;;;17.13;10.95;;;10.20;65.00;;;;;;5057980;28;20111;-79
2021/12/19 06:12:57;;;;;;;16.55;10.43;;;10.30;65.30;;;;;;5069911;28;20033;-79
2021/12/19 06:15:23;;;;;;;14.18;10.30;;;10.40;65.00;;;;;;5054599;28;20024;-89
2021/12/19 06:17:49;;;;;;;17.13;10.73;;;10.20;64.80;;;;;;5056799;28;20025;-84
2021/12/19 06:20:16;;;;;;;19.70;12.70;;;10.00;66.30;;;;;;5071933;28;20028;-85
2021/12/19 06:22:45;;;;;;;15.80;10.93;;;9.80;66.70;;;;;;5087237;28;20027;-86
2021/12/19 06:25:10;;;;;;;17.30;11.30;;;10.10;65.70;;;;;;5058935;28;20082;-84
2021/12/19 06:27:39;;;;;;;20.27;12.75;;;9.70;66.70;;;;;;5073143;28;20029;-80
2021/12/19 06:30:23;;;;;;;20.52;11.70;;;9.50;67.40;;;;;;5071598;28;20037;-81
2021/12/19 06:32:51;;;;;;;18.15;12.27;;;9.50;67.50;;;;;;5055756;28;20474;-84
2021/12/19 06:35:18;;;;;;;18.88;11.90;;;9.40;68.20;;;;;;5080092;28;20036;-87
2021/12/19 06:37:46;;;;;;;18.35;11.88;;;9.30;68.10;;;;;;5055609;28;20033;-84
2021/12/19 06:40:14;;;;;;;20.92;12.82;;;9.50;67.70;;;;;;5082687;28;20093;-86
2021/12/19 06:42:40;;;;;;;21.92;13.48;;;9.50;67.30;;;;;;5075208;28;20035;-87
2021/12/19 06:45:06;;;;;;;19.98;12.60;;;9.50;67.10;;;;;;5071583;28;20028;-83
2021/12/19 06:47:37;;;;;;;20.83;12.30;;;9.70;66.70;;;;;;5054605;28;20042;-83
2021/12/19 06:50:04;;;;;;;19.98;12.93;;;9.60;67.10;;;;;;5070546;28;20494;-80
2021/12/19 06:58:41;;;;;;;21.95;15.05;;;9.20;69.10;;;;;;5274610;22;20141;-79
2021/12/19 07:01:06;;;;;;;20.80;12.98;;;9.10;68.80;;;;;;5053024;28;20119;-81
2021/12/19 07:03:32;;;;;;;19.63;12.00;;;9.50;68.30;;;;;;5037680;28;20363;-78
2021/12/19 07:06:04;;;;;;;25.27;15.20;;;9.70;67.20;;;;;;5046131;28;20048;-85
2021/12/19 07:08:30;;;;;;;24.95;16.35;;;9.30;68.00;;;;;;5075003;28;20028;-81
2021/12/19 07:11:02;;;;;;;21.52;13.88;;;9.00;69.80;;;;;;5056962;28;20023;-85
2021/12/19 07:13:27;;;;;;;21.77;13.85;;;9.10;69.30;;;;;;5056416;28;20114;-79
2021/12/19 07:16:22;;;;;;;22.88;14.32;;;8.70;70.40;;;;;;5074046;28;20081;-85
2021/12/19 07:18:51;;;;;;;20.20;12.23;;;8.60;70.90;;;;;;4992569;28;20045;-85
2021/12/19 07:21:17;;;;;;;23.27;13.13;;;8.60;71.00;;;;;;4976784;28;20030;-80
2021/12/19 07:23:42;;;;;;;23.55;14.10;;;8.80;70.40;;;;;;4980032;28;20045;-81
2021/12/19 07:26:12;;;;;;;21.38;13.10;;;9.00;69.90;;;;;;4980723;28;20054;-88
2021/12/19 07:29:02;;;;;;;21.50;12.73;;;9.00;69.60;;;;;;4976267;28;20101;-81
2021/12/19 07:45:10;;;;;;;18.45;11.10;;;9.80;66.90;;;;;;5281371;22;20435;-80
2021/12/19 07:47:38;;;;;;;18.25;12.18;;;9.70;67.50;;;;;;5036219;28;20084;-82
2021/12/19 07:50:06;;;;;;;18.10;12.13;;;9.80;67.20;;;;;;5035822;28;20025;-79
2021/12/19 07:52:32;;;;;;;22.80;13.73;;;9.80;67.80;;;;;;5053118;28;20075;-84
2021/12/19 07:54:58;;;;;;;21.23;13.18;;;10.10;66.30;;;;;;5018870;28;20048;-80
2021/12/19 07:57:24;;;;;;;124.18;80.68;;;9.90;67.00;;;;;;5042379;28;20502;-81
2021/12/19 07:59:49;;;;;;;79.55;69.90;;;9.50;67.50;;;;;;5027815;28;20021;-76
2021/12/19 08:02:16;;;;;;;50.90;44.25;;;9.60;68.70;;;;;;5017537;28;20129;-81
2021/12/19 08:04:41;;;;;;;26.77;18.48;;;9.60;67.90;;;;;;5031023;28;20582;-78
2021/12/19 08:07:11;;;;;;;42.17;34.10;;;9.80;67.50;;;;;;5031428;28;20033;-78
2021/12/19 08:09:40;;;;;;;36.60;28.42;;;9.90;67.50;;;;;;5032230;28;20072;-79
2021/12/19 08:12:17;;;;;;;26.92;19.63;;;10.00;67.20;;;;;;5032198;28;20039;-89
2021/12/19 08:14:43;;;;;;;28.55;21.08;;;10.00;67.00;;;;;;5021470;28;20476;-83
2021/12/19 08:17:12;;;;;;;27.17;22.35;;;9.80;67.80;;;;;;5035022;28;20044;-80
2021/12/19 08:19:38;;;;;;;36.33;30.45;;;10.10;66.40;;;;;;5035705;28;20021;-78
2021/12/19 08:22:45;;;;;;;34.17;28.08;;;9.90;67.20;;;;;;5052406;28;20028;-80
2021/12/19 08:25:11;;;;;;;22.70;14.43;;;9.60;67.70;;;;;;4974938;28;20042;-80
2021/12/19 08:27:37;;;;;;;22.35;15.02;;;9.10;69.60;;;;;;5002932;28;20042;-81
2021/12/19 08:30:09;;;;;;;27.08;20.65;;;9.00;69.80;;;;;;5011962;28;20034;-83
2021/12/19 08:32:44;;;;;;;26.38;11.48;;;8.80;70.10;;;;;;4975891;28;20029;-87
2021/12/19 08:35:10;;;;;;;20.65;12.70;;;8.90;71.00;;;;;;4975614;28;20027;-80
2021/12/19 08:37:36;;;;;;;27.17;21.10;;;9.30;69.70;;;;;;4975895;28;20457;-80
2021/12/19 08:40:04;;;;;;;21.92;14.25;;;9.80;68.00;;;;;;4991931;28;20061;-82
2021/12/19 08:42:32;;;;;;;22.75;12.73;;;9.80;67.90;;;;;;4974594;28;20034;-80
2021/12/19 08:45:05;;;;;;;19.35;11.70;;;9.60;68.60;;;;;;4967022;28;20078;-80
2021/12/19 08:47:31;;;;;;;19.42;11.70;;;9.70;67.80;;;;;;4973905;28;20034;-78
2021/12/19 08:49:57;;;;;;;18.00;10.23;;;9.70;68.40;;;;;;4976247;28;20045;-81
2021/12/19 08:52:22;;;;;;;22.23;13.55;;;9.90;67.60;;;;;;4990712;28;20026;-79
2021/12/19 08:54:48;;;;;;;17.38;10.57;;;10.20;67.30;;;;;;4989945;28;20397;-79
2021/12/19 08:57:14;;;;;;;36.42;19.23;;;10.10;66.70;;;;;;4994458;28;20030;-77
2021/12/19 08:59:42;;;;;;;23.20;13.50;;;10.20;66.90;;;;;;4974066;28;20031;-77
2021/12/19 09:02:09;;;;;;;26.05;16.98;;;10.60;66.00;;;;;;5010036;28;20088;-86
2021/12/19 09:04:34;;;;;;;26.55;19.17;;;10.90;64.70;;;;;;5032732;28;20129;-78
2021/12/19 09:07:01;;;;;;;20.92;14.10;;;10.50;65.70;;;;;;5027133;28;20531;-79
2021/12/19 09:09:28;;;;;;;16.35;10.23;;;10.20;66.40;;;;;;5028089;28;20025;-79
2021/12/19 09:11:54;;;;;;;22.17;15.07;;;10.10;67.00;;;;;;5014822;28;20381;-78
2021/12/19 09:14:20;;;;;;;18.33;12.38;;;10.10;66.90;;;;;;5026358;28;20468;-78
2021/12/19 09:16:45;;;;;;;26.38;18.90;;;10.20;66.80;;;;;;5016984;28;20021;-78
2021/12/19 09:19:18;;;;;;;17.85;11.38;;;10.60;65.40;;;;;;5015061;28;20130;-82
2021/12/19 09:21:44;;;;;;;24.85;18.63;;;10.60;65.50;;;;;;5014520;28;20116;-78
2021/12/19 09:24:09;;;;;;;18.80;13.18;;;10.30;66.40;;;;;;5014153;28;20116;-79
2021/12/19 09:29:48;;;;;;;16.70;10.07;;;10.10;67.10;;;;;;5037781;22;20415;-78
2021/12/19 09:32:13;;;;;;;47.00;11.23;;;9.90;68.10;;;;;;5013723;28;20766;-81
2021/12/19 09:34:39;;;;;;;18.83;12.25;;;10.00;67.30;;;;;;5024559;28;20025;-81
2021/12/19 09:37:05;;;;;;;16.67;10.40;;;10.20;67.20;;;;;;5007673;28;20028;-80
2021/12/19 09:39:32;;;;;;;23.27;14.50;;;10.00;67.00;;;;;;5025609;28;20032;-82
2021/12/19 09:42:06;;;;;;;18.17;12.25;;;10.00;67.60;;;;;;5010571;28;20026;-89
2021/12/19 09:44:39;;;;;;;17.20;9.15;;;9.90;67.60;;;;;;5014731;28;20116;-84
2021/12/19 09:47:07;;;;;;;19.85;14.07;;;10.00;67.20;;;;;;5011741;28;20025;-78
2021/12/19 09:49:39;;;;;;;23.88;17.23;;;10.00;68.00;;;;;;5017440;28;20029;-79
2021/12/19 09:52:09;;;;;;;24.67;16.35;;;10.20;66.80;;;;;;5021646;28;20032;-80
2021/12/19 09:54:39;;;;;;;22.60;15.45;;;10.60;65.80;;;;;;5029847;28;20063;-81
2021/12/19 09:57:11;;;;;;;20.77;14.20;;;10.60;65.70;;;;;;5020500;28;20369;-83
2021/12/19 09:59:37;;;;;;;62.92;49.65;;;10.60;65.60;;;;;;5006509;28;20148;-78
2021/12/19 10:02:03;;;;;;;23.75;15.30;;;10.80;65.30;;;;;;5031285;28;20405;-83
2021/12/19 10:04:38;;;;;;;25.95;20.42;;;10.60;66.00;;;;;;5030775;28;20029;-77
2021/12/19 10:07:08;;;;;;;17.10;10.73;;;10.80;65.10;;;;;;4318726;28;10000711;-78
2021/12/19 10:09:37;;;;;;;17.08;11.00;;;10.80;64.40;;;;;;5030299;28;20495;-77
2021/12/19 10:12:36;;;;;;;17.38;11.80;;;10.90;65.00;;;;;;5011556;28;20048;-79
2021/12/19 10:15:13;;;;;;;18.17;13.45;;;11.00;64.50;;;;;;5027504;28;20051;-77
2021/12/19 10:17:39;;;;;;;22.00;13.20;;;10.50;65.10;;;;;;5026740;28;20434;-79
2021/12/19 10:20:16;;;;;;;18.73;10.27;;;10.00;67.00;;;;;;5002781;28;20065;-86
2021/12/19 10:22:45;;;;;;;21.50;14.38;;;9.70;67.90;;;;;;5024569;28;20071;-80
2021/12/19 10:25:19;;;;;;;15.75;10.80;;;9.90;67.50;;;;;;5011204;28;20108;-80
2021/12/19 10:27:47;;;;;;;19.65;15.27;;;10.10;66.50;;;;;;5014269;28;20052;-81
2021/12/19 10:30:34;;;;;;;21.58;16.38;;;10.10;66.20;;;;;;5017391;28;20030;-79
2021/12/19 10:33:04;;;;;;;18.55;11.63;;;10.00;66.80;;;;;;5017374;28;20075;-78
2021/12/19 10:35:33;;;;;;;;;;;10.00;66.40;;;;;;5017927;28;20029;-78
2021/12/19 10:38:00;;;;;;;15.23;9.90;;;9.80;67.20;;;;;;5017437;28;19901;-77
2021/12/19 10:40:27;;;;;;;20.37;14.77;;;9.80;67.50;;;;;;4685756;28;10000289;-77
2021/12/19 10:43:00;;;;;;;17.92;11.18;;;9.80;67.70;;;;;;5014673;28;20278;-77
2021/12/19 10:45:44;;;;;;;17.88;10.88;;;9.80;67.10;;;;;;5010920;28;20141;-78
2021/12/19 10:48:16;;;;;;;17.30;12.20;;;10.00;67.30;;;;;;4995099;28;20034;-79
2021/12/19 10:51:00;;;;;;;14.98;10.40;;;10.30;66.00;;;;;;5006037;28;20030;-78
2021/12/19 10:53:53;;;;;;;16.90;12.25;;;10.30;66.20;;;;;;4994642;28;20087;-78
2021/12/19 10:56:31;;;;;;;15.50;9.75;;;10.70;65.00;;;;;;5009734;28;20120;-79
2021/12/19 10:58:59;;;;;;;14.50;9.15;;;10.70;65.00;;;;;;5017033;28;20032;-81
2021/12/19 11:01:36;;;;;;;14.40;8.90;;;10.20;65.60;;;;;;5007991;28;20038;-79
2021/12/19 11:04:10;;;;;;;19.38;13.85;;;9.90;67.00;;;;;;5033219;28;20021;-83
2021/12/19 11:06:49;;;;;;;16.33;10.40;;;9.60;67.90;;;;;;5032911;28;20148;-77
2021/12/19 11:09:26;;;;;;;29.73;22.10;;;9.40;68.60;;;;;;5024438;28;20113;-87
2021/12/19 11:12:08;;;;;;;19.20;12.95;;;9.60;67.80;;;;;;5003275;28;20021;-80
2021/12/19 11:15:16;;;;;;;19.67;9.32;;;10.00;67.50;;;;;;5032073;28;20037;-87
2021/12/19 11:17:42;;;;;;;19.83;14.13;;;9.90;66.70;;;;;;5013294;28;20021;-78
2021/12/19 11:20:08;;;;;;;22.30;16.83;;;9.80;67.00;;;;;;5031836;28;20506;-77
2021/12/19 11:22:34;;;;;;;23.23;18.15;;;9.50;67.30;;;;;;5030293;28;20599;-77
2021/12/19 11:25:06;;;;;;;23.67;19.90;;;9.70;67.20;;;;;;5032367;28;20045;-79
2021/12/19 11:27:33;;;;;;;19.10;14.43;;;9.50;67.00;;;;;;5014300;28;20425;-79
2021/12/19 11:30:01;;;;;;;24.42;19.67;;;9.40;67.50;;;;;;5032678;28;20072;-82
2021/12/19 11:32:48;;;;;;;20.00;12.88;;;9.50;67.60;;;;;;5033594;28;20040;-78
2021/12/19 11:37:59;;;;;;;28.48;20.77;;;9.90;66.10;;;;;;5152582;22;20050;-79
2021/12/19 11:40:30;;;;;;;46.85;17.85;;;9.70;67.10;;;;;;4995688;28;20026;-78
2021/12/19 11:43:10;;;;;;;39.85;34.05;;;9.80;66.90;;;;;;4993753;28;20075;-77
2021/12/19 11:45:52;;;;;;;90.60;41.10;;;9.80;66.60;;;;;;5013037;28;20060;-79
2021/12/19 11:48:26;;;;;;;103.88;40.63;;;9.70;67.00;;;;;;4991160;28;20077;-77
2021/12/19 11:50:57;;;;;;;67.28;17.85;;;9.90;67.10;;;;;;5010822;28;20051;-78
2021/12/19 11:53:25;;;;;;;25.67;16.60;;;10.00;66.10;;;;;;4993563;28;20026;-78
2021/12/19 11:55:54;;;;;;;29.30;26.17;;;10.10;66.60;;;;;;4995063;28;20049;-79
2021/12/19 12:02:25;;;;;;;17.42;12.40;;;10.60;64.80;;;;;;5000439;28;20066;-79
2021/12/19 12:05:16;;;;;;;24.42;19.00;;;10.80;64.10;;;;;;4980163;28;20037;-84
2021/12/19 12:08:10;;;;;;;21.65;15.38;;;10.70;64.10;;;;;;5009823;28;20034;-80
2021/12/19 12:10:52;;;;;;;25.55;19.60;;;10.90;64.20;;;;;;5009652;28;20440;-79
2021/12/19 12:13:30;;;;;;;27.75;21.23;;;11.10;63.70;;;;;;5010893;28;20496;-80
2021/12/19 12:18:43;;;;;;;21.27;12.02;;;11.30;62.80;;;;;;5010921;28;20388;-78
2021/12/19 12:21:33;;;;;;;32.67;25.85;;;10.90;63.60;;;;;;5011469;28;20053;-79
2021/12/19 12:24:05;;;;;;;24.23;16.63;;;10.90;64.40;;;;;;5009427;28;20076;-78
2021/12/19 12:26:42;;;;;;;31.38;20.88;;;11.20;64.00;;;;;;4994316;28;20299;-79
2021/12/19 12:29:09;;;;;;;26.48;20.02;;;11.40;62.60;;;;;;4992807;28;20025;-78
2021/12/19 12:31:35;;;;;;;16.88;12.15;;;11.60;62.70;;;;;;5010118;28;20041;-77
2021/12/19 12:34:02;;;;;;;24.45;18.70;;;11.60;62.50;;;;;;5007566;28;20147;-79
2021/12/19 12:36:27;;;;;;;21.55;14.05;;;11.80;62.30;;;;;;5009175;28;20026;-79
2021/12/19 12:38:54;;;;;;;33.65;25.33;;;12.40;61.40;;;;;;4992337;28;20057;-77
2021/12/19 12:41:40;;;;;;;15.25;9.55;;;12.70;60.50;;;;;;5010018;28;20041;-83
2021/12/19 12:44:10;;;;;;;47.78;32.60;;;12.30;60.10;;;;;;4992464;28;20022;-79
2021/12/19 12:46:37;;;;;;;27.92;19.05;;;11.90;61.20;;;;;;4996423;28;20092;-78
2021/12/19 12:49:06;;;;;;;18.33;12.05;;;12.10;61.20;;;;;;4993050;28;20385;-79
2021/12/19 12:51:41;;;;;;;27.70;19.60;;;12.60;60.70;;;;;;4994231;28;20475;-85
2021/12/19 12:54:10;;;;;;;16.65;10.48;;;12.50;60.00;;;;;;4991496;28;20121;-79
2021/12/19 12:56:56;;;;;;;26.58;19.00;;;12.70;60.10;;;;;;4977478;28;20014;-80
2021/12/19 12:59:24;;;;;;;87.38;69.25;;;12.60;59.30;;;;;;4982001;28;20034;-79
2021/12/19 13:01:54;;;;;;;15.45;10.75;;;11.90;61.10;;;;;;5009022;28;20022;-78
2021/12/19 13:04:27;;;;;;;11.98;7.00;;;12.00;61.80;;;;;;4987837;28;20044;-81
2021/12/19 13:07:22;;;;;;;12.70;8.68;;;11.90;61.50;;;;;;5001225;28;20068;-78
2021/12/19 13:09:49;;;;;;;27.48;21.52;;;11.90;61.70;;;;;;4991528;28;20061;-81
2021/12/19 13:12:22;;;;;;;11.88;8.27;;;12.50;60.20;;;;;;4983511;28;20022;-79
2021/12/19 13:14:57;;;;;;;60.55;42.95;;;12.80;59.80;;;;;;5007483;28;20022;-78
2021/12/19 13:17:35;;;;;;;15.48;10.75;;;13.00;58.60;;;;;;4997808;28;20504;-80
2021/12/19 13:20:04;;;;;;;44.00;28.45;;;13.00;59.30;;;;;;5004907;28;20142;-79
2021/12/19 13:22:43;;;;;;;21.85;14.48;;;13.10;58.80;;;;;;5003097;28;20121;-79
2021/12/19 13:27:47;;;;;;;81.75;47.88;;;13.50;58.20;;;;;;4481438;26;20084;-79
2021/12/19 13:30:20;;;;;;;114.57;78.25;;;13.40;58.30;;;;;;5011212;28;20468;-84
2021/12/19 13:33:18;;;;;;;45.35;31.60;;;12.70;58.60;;;;;;4974529;28;20030;-80
2021/12/19 13:35:49;;;;;;;90.20;65.70;;;11.90;61.10;;;;;;4973962;28;20034;-81
2021/12/19 13:38:23;;;;;;;64.00;44.60;;;11.20;62.80;;;;;;5002317;28;20804;-81
2021/12/19 13:40:59;;;;;;;20.80;13.38;;;11.50;62.80;;;;;;5009205;28;20677;-83
2021/12/19 13:43:38;;;;;;;11.55;7.53;;;11.50;62.30;;;;;;4992991;28;20444;-80
2021/12/19 13:46:10;;;;;;;12.95;8.00;;;11.80;62.20;;;;;;5009260;28;20037;-78
2021/12/19 13:48:38;;;;;;;17.50;11.73;;;11.90;61.20;;;;;;4996006;28;20034;-80
2021/12/19 13:51:15;;;;;;;95.82;60.88;;;11.70;62.20;;;;;;5009317;28;20015;-79
2021/12/19 13:53:53;;;;;;;104.40;69.80;;;11.20;62.40;;;;;;5002296;28;20026;-80
2021/12/19 13:56:30;;;;;;;57.38;39.28;;;11.10;63.40;;;;;;4991496;28;20216;-80
2021/12/19 13:59:03;;;;;;;25.30;17.85;;;11.20;63.60;;;;;;5012664;28;20029;-79
2021/12/19 14:01:37;;;;;;;40.40;29.45;;;11.30;63.10;;;;;;4995617;28;20041;-79
2021/12/19 14:04:16;;;;;;;30.80;22.00;;;11.50;62.50;;;;;;5013353;28;20041;-80
2021/12/19 14:06:45;;;;;;;16.77;12.02;;;11.10;62.70;;;;;;4993711;28;20416;-79
2021/12/19 14:09:11;;;;;;;69.72;48.08;;;11.20;63.50;;;;;;4995798;28;20037;-80
2021/12/19 14:11:43;;;;;;;48.80;37.25;;;11.50;62.70;;;;;;4995357;28;20026;-80
2021/12/19 14:14:29;;;;;;;138.25;64.07;;;11.90;61.80;;;;;;4994907;28;20373;-80
2021/12/19 14:17:06;;;;;;;25.75;14.85;;;11.80;61.70;;;;;;4995538;28;20030;-80
2021/12/19 14:19:34;;;;;;;26.15;14.32;;;11.50;62.10;;;;;;4995764;28;20018;-80
2021/12/19 14:22:00;;;;;;;48.13;27.92;;;11.30;62.80;;;;;;4995036;28;20469;-79
2021/12/19 14:24:31;;;;;;;61.78;35.08;;;10.90;63.60;;;;;;5013005;28;20030;-80
2021/12/19 14:27:25;;;;;;;15.70;10.15;;;11.00;63.90;;;;;;4995369;28;20042;-80
2021/12/19 14:30:10;;;;;;;10.48;7.63;;;11.50;62.60;;;;;;4980743;28;20479;-84